Cardigan, Canada
Current Conditions -  °F | °C
As of 8:00 AM on Saturday 25 Oct 2014 (Local Time) from CYYG Reporting Station
Drizzle Drizzle  
Wind Chill: 50°   Ceiling: 400
Heat Index: 50°   Visibility: 2mi
Dew Point: 48°   Wind: 10mph
Humidity: 94%   Direction: 350°N
Pressure: 29.44"   Gusts: 21mph
Location:  46.23°N, 62.62°W
Report Text: CYYG 251100Z 35009G18KT 2SM -DZ BR OVC004 10/09 A2944 RMK SF8 SLP970
Loading
Personal Weather Stations






























Interactive Weather Map
Tropical Storm Tracking
New forecast layout! Learn more

10-Day Weather Forecast

Advertisements
Track Severe Weather on mobile